sensor_id;sensor_type;location;lat;lon;timestamp;P1;durP1;ratioP1;P2;durP2;ratioP2
17197;SDS011;8715;51.010;6.812;2022-10-22T00:00:21;493.45;;;473.30;;
17197;SDS011;8715;51.010;6.812;2022-10-22T00:02:47;518.75;;;497.67;;
17197;SDS011;8715;51.010;6.812;2022-10-22T00:05:12;501.67;;;481.27;;
17197;SDS011;8715;51.010;6.812;2022-10-22T00:07:39;504.87;;;483.73;;
17197;SDS011;8715;51.010;6.812;2022-10-22T00:10:05;504.70;;;484.60;;
17197;SDS011;8715;51.010;6.812;2022-10-22T00:12:31;494.42;;;473.33;;
17197;SDS011;8715;51.010;6.812;2022-10-22T00:14:56;507.08;;;485.98;;
17197;SDS011;8715;51.010;6.812;2022-10-22T00:17:22;494.23;;;474.63;;
17197;SDS011;8715;51.010;6.812;2022-10-22T00:19:47;506.10;;;485.73;;
17197;SDS011;8715;51.010;6.812;2022-10-22T00:22:13;487.70;;;467.75;;
17197;SDS011;8715;51.010;6.812;2022-10-22T00:24:38;494.27;;;472.83;;
17197;SDS011;8715;51.010;6.812;2022-10-22T00:27:04;509.08;;;487.92;;
17197;SDS011;8715;51.010;6.812;2022-10-22T00:29:29;506.45;;;484.77;;
17197;SDS011;8715;51.010;6.812;2022-10-22T00:31:55;496.80;;;476.15;;
17197;SDS011;8715;51.010;6.812;2022-10-22T00:34:21;517.20;;;495.97;;
17197;SDS011;8715;51.010;6.812;2022-10-22T00:36:46;500.40;;;479.73;;
17197;SDS011;8715;51.010;6.812;2022-10-22T00:39:13;509.58;;;488.55;;
17197;SDS011;8715;51.010;6.812;2022-10-22T00:41:40;514.25;;;492.35;;
17197;SDS011;8715;51.010;6.812;2022-10-22T00:44:06;509.52;;;488.48;;
17197;SDS011;8715;51.010;6.812;2022-10-22T00:46:32;534.63;;;512.42;;
17197;SDS011;8715;51.010;6.812;2022-10-22T00:48:58;516.22;;;494.83;;
17197;SDS011;8715;51.010;6.812;2022-10-22T00:51:26;504.45;;;484.20;;
17197;SDS011;8715;51.010;6.812;2022-10-22T00:53:55;510.40;;;488.80;;
17197;SDS011;8715;51.010;6.812;2022-10-22T00:56:24;507.88;;;486.65;;
17197;SDS011;8715;51.010;6.812;2022-10-22T00:58:51;511.02;;;489.50;;
17197;SDS011;8715;51.010;6.812;2022-10-22T01:01:20;502.58;;;481.60;;
17197;SDS011;8715;51.010;6.812;2022-10-22T01:03:48;509.48;;;488.88;;
17197;SDS011;8715;51.010;6.812;2022-10-22T01:06:18;503.23;;;482.80;;
17197;SDS011;8715;51.010;6.812;2022-10-22T01:16:59;510.13;;;489.58;;
17197;SDS011;8715;51.010;6.812;2022-10-22T01:19:48;519.97;;;496.98;;
17197;SDS011;8715;51.010;6.812;2022-10-22T01:25:04;516.95;;;495.75;;
17197;SDS011;8715;51.010;6.812;2022-10-22T01:27:42;505.00;;;483.90;;
17197;SDS011;8715;51.010;6.812;2022-10-22T01:30:14;502.05;;;481.40;;
17197;SDS011;8715;51.010;6.812;2022-10-22T01:32:50;510.98;;;490.10;;
17197;SDS011;8715;51.010;6.812;2022-10-22T01:35:18;506.45;;;486.02;;
17197;SDS011;8715;51.010;6.812;2022-10-22T01:37:48;502.92;;;482.38;;
17197;SDS011;8715;51.010;6.812;2022-10-22T01:40:15;501.23;;;479.95;;
17197;SDS011;8715;51.010;6.812;2022-10-22T01:42:41;516.53;;;495.77;;
17197;SDS011;8715;51.010;6.812;2022-10-22T01:45:13;509.77;;;489.00;;
17197;SDS011;8715;51.010;6.812;2022-10-22T01:47:45;521.30;;;499.90;;
17197;SDS011;8715;51.010;6.812;2022-10-22T02:01:12;507.27;;;485.50;;
17197;SDS011;8715;51.010;6.812;2022-10-22T02:03:46;506.80;;;486.60;;
17197;SDS011;8715;51.010;6.812;2022-10-22T02:06:22;476.25;;;457.00;;
17197;SDS011;8715;51.010;6.812;2022-10-22T02:08:49;501.77;;;481.15;;
17197;SDS011;8715;51.010;6.812;2022-10-22T02:11:15;520.50;;;499.38;;
17197;SDS011;8715;51.010;6.812;2022-10-22T02:13:44;511.55;;;490.58;;
17197;SDS011;8715;51.010;6.812;2022-10-22T02:16:14;516.72;;;495.55;;
17197;SDS011;8715;51.010;6.812;2022-10-22T02:18:43;493.02;;;472.33;;
17197;SDS011;8715;51.010;6.812;2022-10-22T02:21:10;513.22;;;491.85;;
17197;SDS011;8715;51.010;6.812;2022-10-22T02:23:36;515.70;;;494.35;;
17197;SDS011;8715;51.010;6.812;2022-10-22T02:26:17;511.13;;;489.60;;
17197;SDS011;8715;51.010;6.812;2022-10-22T02:28:56;506.88;;;486.85;;
17197;SDS011;8715;51.010;6.812;2022-10-22T02:31:29;518.15;;;496.55;;
17197;SDS011;8715;51.010;6.812;2022-10-22T02:33:57;496.55;;;475.67;;
17197;SDS011;8715;51.010;6.812;2022-10-22T02:36:27;526.17;;;503.23;;
17197;SDS011;8715;51.010;6.812;2022-10-22T02:38:52;505.35;;;484.48;;
17197;SDS011;8715;51.010;6.812;2022-10-22T02:41:18;500.15;;;478.95;;
17197;SDS011;8715;51.010;6.812;2022-10-22T02:43:49;500.25;;;479.55;;
17197;SDS011;8715;51.010;6.812;2022-10-22T02:46:16;501.25;;;481.33;;
17197;SDS011;8715;51.010;6.812;2022-10-22T02:48:41;504.07;;;483.73;;
17197;SDS011;8715;51.010;6.812;2022-10-22T02:51:06;494.63;;;473.47;;
17197;SDS011;8715;51.010;6.812;2022-10-22T02:53:32;508.65;;;486.60;;
17197;SDS011;8715;51.010;6.812;2022-10-22T02:55:57;501.07;;;479.73;;
17197;SDS011;8715;51.010;6.812;2022-10-22T02:58:23;498.23;;;477.55;;
17197;SDS011;8715;51.010;6.812;2022-10-22T03:00:49;493.73;;;473.07;;
17197;SDS011;8715;51.010;6.812;2022-10-22T03:03:14;496.67;;;476.53;;
17197;SDS011;8715;51.010;6.812;2022-10-22T03:05:39;492.17;;;471.53;;
17197;SDS011;8715;51.010;6.812;2022-10-22T03:08:05;485.67;;;465.08;;
17197;SDS011;8715;51.010;6.812;2022-10-22T03:10:30;482.15;;;461.77;;
17197;SDS011;8715;51.010;6.812;2022-10-22T03:12:55;504.30;;;483.67;;
17197;SDS011;8715;51.010;6.812;2022-10-22T03:15:21;487.55;;;467.92;;
17197;SDS011;8715;51.010;6.812;2022-10-22T03:17:46;498.63;;;478.30;;
17197;SDS011;8715;51.010;6.812;2022-10-22T03:20:11;490.47;;;469.50;;
17197;SDS011;8715;51.010;6.812;2022-10-22T03:22:37;505.40;;;483.33;;
17197;SDS011;8715;51.010;6.812;2022-10-22T03:25:05;516.25;;;495.20;;
17197;SDS011;8715;51.010;6.812;2022-10-22T03:27:32;489.02;;;468.52;;
17197;SDS011;8715;51.010;6.812;2022-10-22T03:29:58;477.55;;;457.30;;
17197;SDS011;8715;51.010;6.812;2022-10-22T03:32:23;485.83;;;465.33;;
17197;SDS011;8715;51.010;6.812;2022-10-22T03:34:49;471.75;;;451.08;;
17197;SDS011;8715;51.010;6.812;2022-10-22T03:37:14;466.30;;;446.60;;
17197;SDS011;8715;51.010;6.812;2022-10-22T03:39:39;471.43;;;451.87;;
17197;SDS011;8715;51.010;6.812;2022-10-22T03:42:05;485.23;;;465.17;;
17197;SDS011;8715;51.010;6.812;2022-10-22T03:44:31;482.20;;;462.08;;
17197;SDS011;8715;51.010;6.812;2022-10-22T03:46:57;496.55;;;475.70;;
17197;SDS011;8715;51.010;6.812;2022-10-22T03:49:22;492.73;;;472.58;;
17197;SDS011;8715;51.010;6.812;2022-10-22T03:51:48;504.15;;;483.95;;
17197;SDS011;8715;51.010;6.812;2022-10-22T03:54:14;492.23;;;471.80;;
17197;SDS011;8715;51.010;6.812;2022-10-22T03:56:39;482.95;;;462.52;;
17197;SDS011;8715;51.010;6.812;2022-10-22T03:59:05;488.30;;;468.02;;
17197;SDS011;8715;51.010;6.812;2022-10-22T04:01:30;496.87;;;475.73;;
17197;SDS011;8715;51.010;6.812;2022-10-22T04:03:56;485.17;;;464.33;;
17197;SDS011;8715;51.010;6.812;2022-10-22T04:06:21;503.80;;;483.45;;
17197;SDS011;8715;51.010;6.812;2022-10-22T04:08:47;496.77;;;476.60;;
17197;SDS011;8715;51.010;6.812;2022-10-22T04:11:13;486.88;;;466.92;;
17197;SDS011;8715;51.010;6.812;2022-10-22T04:13:40;482.42;;;461.60;;
17197;SDS011;8715;51.010;6.812;2022-10-22T04:16:14;487.48;;;466.67;;
17197;SDS011;8715;51.010;6.812;2022-10-22T04:18:42;490.23;;;470.10;;
17197;SDS011;8715;51.010;6.812;2022-10-22T04:21:08;493.10;;;472.27;;
17197;SDS011;8715;51.010;6.812;2022-10-22T04:23:34;478.60;;;458.75;;
17197;SDS011;8715;51.010;6.812;2022-10-22T04:26:00;477.15;;;456.92;;
17197;SDS011;8715;51.010;6.812;2022-10-22T04:28:28;472.98;;;453.17;;
17197;SDS011;8715;51.010;6.812;2022-10-22T04:30:53;483.48;;;463.15;;
17197;SDS011;8715;51.010;6.812;2022-10-22T04:33:19;477.00;;;457.60;;
17197;SDS011;8715;51.010;6.812;2022-10-22T04:35:44;501.98;;;481.08;;
17197;SDS011;8715;51.010;6.812;2022-10-22T04:38:10;488.55;;;468.30;;
17197;SDS011;8715;51.010;6.812;2022-10-22T04:40:35;480.08;;;460.52;;
17197;SDS011;8715;51.010;6.812;2022-10-22T04:43:01;476.90;;;456.33;;
17197;SDS011;8715;51.010;6.812;2022-10-22T04:45:26;490.23;;;469.13;;
17197;SDS011;8715;51.010;6.812;2022-10-22T04:47:51;467.97;;;448.83;;
17197;SDS011;8715;51.010;6.812;2022-10-22T04:50:17;471.60;;;451.90;;
17197;SDS011;8715;51.010;6.812;2022-10-22T04:52:42;464.98;;;446.33;;
17197;SDS011;8715;51.010;6.812;2022-10-22T04:55:07;486.87;;;465.97;;
17197;SDS011;8715;51.010;6.812;2022-10-22T04:57:33;480.75;;;460.77;;
17197;SDS011;8715;51.010;6.812;2022-10-22T04:59:58;490.70;;;468.80;;
17197;SDS011;8715;51.010;6.812;2022-10-22T05:02:24;482.10;;;461.97;;
17197;SDS011;8715;51.010;6.812;2022-10-22T05:04:49;471.93;;;452.63;;
17197;SDS011;8715;51.010;6.812;2022-10-22T05:07:14;469.70;;;450.13;;
17197;SDS011;8715;51.010;6.812;2022-10-22T05:09:40;474.98;;;455.65;;
17197;SDS011;8715;51.010;6.812;2022-10-22T05:12:05;483.10;;;462.63;;
17197;SDS011;8715;51.010;6.812;2022-10-22T05:14:30;464.05;;;444.63;;
17197;SDS011;8715;51.010;6.812;2022-10-22T05:16:56;475.35;;;455.17;;
17197;SDS011;8715;51.010;6.812;2022-10-22T05:19:24;474.10;;;455.00;;
17197;SDS011;8715;51.010;6.812;2022-10-22T05:21:51;487.90;;;468.00;;
17197;SDS011;8715;51.010;6.812;2022-10-22T05:24:18;458.25;;;439.20;;
17197;SDS011;8715;51.010;6.812;2022-10-22T05:26:43;464.27;;;445.07;;
17197;SDS011;8715;51.010;6.812;2022-10-22T05:29:08;462.17;;;442.77;;
17197;SDS011;8715;51.010;6.812;2022-10-22T05:31:34;456.85;;;437.25;;
17197;SDS011;8715;51.010;6.812;2022-10-22T05:33:59;478.58;;;458.40;;
17197;SDS011;8715;51.010;6.812;2022-10-22T05:36:25;467.45;;;447.13;;
17197;SDS011;8715;51.010;6.812;2022-10-22T05:38:50;459.38;;;440.33;;
17197;SDS011;8715;51.010;6.812;2022-10-22T05:41:17;452.07;;;432.37;;
17197;SDS011;8715;51.010;6.812;2022-10-22T05:43:46;464.65;;;444.48;;
17197;SDS011;8715;51.010;6.812;2022-10-22T05:46:13;485.75;;;465.10;;
17197;SDS011;8715;51.010;6.812;2022-10-22T05:48:40;476.55;;;456.02;;
17197;SDS011;8715;51.010;6.812;2022-10-22T05:51:09;457.83;;;437.20;;
17197;SDS011;8715;51.010;6.812;2022-10-22T05:53:36;471.70;;;451.17;;
17197;SDS011;8715;51.010;6.812;2022-10-22T05:56:05;477.00;;;456.17;;
17197;SDS011;8715;51.010;6.812;2022-10-22T05:58:32;489.02;;;467.58;;
17197;SDS011;8715;51.010;6.812;2022-10-22T06:01:01;490.50;;;469.15;;
17197;SDS011;8715;51.010;6.812;2022-10-22T06:03:31;484.45;;;463.73;;
17197;SDS011;8715;51.010;6.812;2022-10-22T06:05:58;465.55;;;445.77;;
17197;SDS011;8715;51.010;6.812;2022-10-22T06:08:24;451.42;;;431.40;;
17197;SDS011;8715;51.010;6.812;2022-10-22T06:10:50;468.85;;;448.98;;
17197;SDS011;8715;51.010;6.812;2022-10-22T06:13:16;456.88;;;437.20;;
17197;SDS011;8715;51.010;6.812;2022-10-22T06:15:42;474.30;;;453.20;;
17197;SDS011;8715;51.010;6.812;2022-10-22T06:18:07;485.40;;;465.20;;
17197;SDS011;8715;51.010;6.812;2022-10-22T06:20:33;460.10;;;439.97;;
17197;SDS011;8715;51.010;6.812;2022-10-22T06:22:59;487.98;;;466.73;;
17197;SDS011;8715;51.010;6.812;2022-10-22T06:25:24;473.63;;;453.23;;
17197;SDS011;8715;51.010;6.812;2022-10-22T06:27:49;459.38;;;439.67;;
17197;SDS011;8715;51.010;6.812;2022-10-22T06:30:18;468.92;;;448.75;;
17197;SDS011;8715;51.010;6.812;2022-10-22T06:32:44;480.03;;;459.87;;
17197;SDS011;8715;51.010;6.812;2022-10-22T06:35:09;480.55;;;459.45;;
17197;SDS011;8715;51.010;6.812;2022-10-22T06:37:35;497.07;;;476.20;;
17197;SDS011;8715;51.010;6.812;2022-10-22T06:40:00;495.20;;;473.60;;
17197;SDS011;8715;51.010;6.812;2022-10-22T06:42:26;483.00;;;462.10;;
17197;SDS011;8715;51.010;6.812;2022-10-22T06:44:52;473.02;;;453.15;;
17197;SDS011;8715;51.010;6.812;2022-10-22T06:47:17;470.83;;;451.33;;
17197;SDS011;8715;51.010;6.812;2022-10-22T06:49:43;469.13;;;449.60;;
17197;SDS011;8715;51.010;6.812;2022-10-22T06:52:08;481.33;;;460.80;;
17197;SDS011;8715;51.010;6.812;2022-10-22T06:54:34;470.73;;;451.02;;
17197;SDS011;8715;51.010;6.812;2022-10-22T06:57:00;471.92;;;451.60;;
17197;SDS011;8715;51.010;6.812;2022-10-22T06:59:25;482.20;;;462.60;;
17197;SDS011;8715;51.010;6.812;2022-10-22T07:01:50;471.30;;;451.80;;
17197;SDS011;8715;51.010;6.812;2022-10-22T07:04:16;478.17;;;458.53;;
17197;SDS011;8715;51.010;6.812;2022-10-22T07:06:41;474.75;;;455.48;;
17197;SDS011;8715;51.010;6.812;2022-10-22T07:09:07;478.65;;;458.95;;
17197;SDS011;8715;51.010;6.812;2022-10-22T07:11:40;505.90;;;484.20;;
17197;SDS011;8715;51.010;6.812;2022-10-22T07:14:07;496.17;;;475.83;;
17197;SDS011;8715;51.010;6.812;2022-10-22T07:16:32;499.67;;;478.85;;
17197;SDS011;8715;51.010;6.812;2022-10-22T07:18:58;497.80;;;476.90;;
17197;SDS011;8715;51.010;6.812;2022-10-22T07:21:24;537.33;;;515.45;;
17197;SDS011;8715;51.010;6.812;2022-10-22T07:23:50;503.65;;;483.38;;
17197;SDS011;8715;51.010;6.812;2022-10-22T07:26:16;508.73;;;487.73;;
17197;SDS011;8715;51.010;6.812;2022-10-22T07:28:41;514.72;;;493.80;;
17197;SDS011;8715;51.010;6.812;2022-10-22T07:31:07;521.65;;;500.23;;
17197;SDS011;8715;51.010;6.812;2022-10-22T07:33:34;515.45;;;494.15;;
17197;SDS011;8715;51.010;6.812;2022-10-22T07:36:00;534.63;;;512.70;;
17197;SDS011;8715;51.010;6.812;2022-10-22T07:38:27;521.25;;;500.70;;
17197;SDS011;8715;51.010;6.812;2022-10-22T07:40:53;533.78;;;512.13;;
17197;SDS011;8715;51.010;6.812;2022-10-22T07:43:18;532.28;;;511.10;;
17197;SDS011;8715;51.010;6.812;2022-10-22T07:45:44;533.22;;;511.77;;
17197;SDS011;8715;51.010;6.812;2022-10-22T07:48:09;545.92;;;523.92;;
17197;SDS011;8715;51.010;6.812;2022-10-22T07:50:36;547.93;;;525.77;;
17197;SDS011;8715;51.010;6.812;2022-10-22T07:53:02;538.85;;;516.53;;
17197;SDS011;8715;51.010;6.812;2022-10-22T07:55:27;562.60;;;539.50;;
17197;SDS011;8715;51.010;6.812;2022-10-22T07:57:53;542.55;;;520.70;;
17197;SDS011;8715;51.010;6.812;2022-10-22T08:00:18;553.95;;;532.35;;
17197;SDS011;8715;51.010;6.812;2022-10-22T08:02:43;559.40;;;536.42;;
17197;SDS011;8715;51.010;6.812;2022-10-22T08:05:09;552.13;;;529.60;;
17197;SDS011;8715;51.010;6.812;2022-10-22T08:07:34;561.35;;;538.88;;
17197;SDS011;8715;51.010;6.812;2022-10-22T08:10:00;560.63;;;537.53;;
17197;SDS011;8715;51.010;6.812;2022-10-22T08:12:25;564.03;;;540.88;;
17197;SDS011;8715;51.010;6.812;2022-10-22T08:14:50;554.53;;;532.93;;
17197;SDS011;8715;51.010;6.812;2022-10-22T08:17:16;568.13;;;545.30;;
17197;SDS011;8715;51.010;6.812;2022-10-22T08:19:41;559.22;;;536.05;;
17197;SDS011;8715;51.010;6.812;2022-10-22T08:22:06;555.75;;;533.15;;
17197;SDS011;8715;51.010;6.812;2022-10-22T08:24:32;552.50;;;530.45;;
17197;SDS011;8715;51.010;6.812;2022-10-22T08:26:57;559.30;;;536.83;;
17197;SDS011;8715;51.010;6.812;2022-10-22T08:29:23;561.45;;;539.20;;
17197;SDS011;8715;51.010;6.812;2022-10-22T08:31:49;547.20;;;525.40;;
17197;SDS011;8715;51.010;6.812;2022-10-22T08:34:15;552.67;;;530.50;;
17197;SDS011;8715;51.010;6.812;2022-10-22T08:36:41;559.03;;;536.60;;
17197;SDS011;8715;51.010;6.812;2022-10-22T08:39:06;550.53;;;528.30;;
17197;SDS011;8715;51.010;6.812;2022-10-22T08:41:33;552.40;;;530.45;;
17197;SDS011;8715;51.010;6.812;2022-10-22T08:47:30;551.75;;;529.83;;
17197;SDS011;8715;51.010;6.812;2022-10-22T08:49:46;551.03;;;529.30;;
17197;SDS011;8715;51.010;6.812;2022-10-22T08:52:12;565.20;;;541.90;;
17197;SDS011;8715;51.010;6.812;2022-10-22T08:54:48;575.47;;;552.13;;
17197;SDS011;8715;51.010;6.812;2022-10-22T09:00:23;566.38;;;543.53;;
17197;SDS011;8715;51.010;6.812;2022-10-22T09:08:11;582.50;;;558.50;;
17197;SDS011;8715;51.010;6.812;2022-10-22T09:10:39;566.60;;;543.72;;
17197;SDS011;8715;51.010;6.812;2022-10-22T09:13:09;569.63;;;546.88;;
17197;SDS011;8715;51.010;6.812;2022-10-22T09:15:38;572.47;;;549.55;;
17197;SDS011;8715;51.010;6.812;2022-10-22T09:18:11;573.75;;;550.67;;
17197;SDS011;8715;51.010;6.812;2022-10-22T09:23:51;582.10;;;558.22;;
17197;SDS011;8715;51.010;6.812;2022-10-22T09:26:20;583.65;;;560.58;;
17197;SDS011;8715;51.010;6.812;2022-10-22T09:28:48;578.38;;;555.35;;
17197;SDS011;8715;51.010;6.812;2022-10-22T09:31:14;587.58;;;563.55;;
17197;SDS011;8715;51.010;6.812;2022-10-22T09:33:40;585.90;;;562.33;;
17197;SDS011;8715;51.010;6.812;2022-10-22T09:36:11;585.53;;;562.13;;
17197;SDS011;8715;51.010;6.812;2022-10-22T09:38:45;605.00;;;579.78;;
17197;SDS011;8715;51.010;6.812;2022-10-22T09:41:12;576.10;;;552.42;;
17197;SDS011;8715;51.010;6.812;2022-10-22T09:43:37;574.25;;;550.50;;
17197;SDS011;8715;51.010;6.812;2022-10-22T09:46:04;593.30;;;569.70;;
17197;SDS011;8715;51.010;6.812;2022-10-22T09:48:32;590.65;;;566.60;;
17197;SDS011;8715;51.010;6.812;2022-10-22T09:53:25;586.63;;;563.23;;
17197;SDS011;8715;51.010;6.812;2022-10-22T09:55:55;567.65;;;545.00;;
17197;SDS011;8715;51.010;6.812;2022-10-22T09:58:23;604.25;;;579.67;;
17197;SDS011;8715;51.010;6.812;2022-10-22T10:00:53;573.85;;;550.78;;
17197;SDS011;8715;51.010;6.812;2022-10-22T10:03:21;574.95;;;551.58;;
17197;SDS011;8715;51.010;6.812;2022-10-22T10:05:50;599.28;;;575.47;;
17197;SDS011;8715;51.010;6.812;2022-10-22T10:08:17;595.58;;;569.90;;
17197;SDS011;8715;51.010;6.812;2022-10-22T10:10:45;571.77;;;549.13;;
17197;SDS011;8715;51.010;6.812;2022-10-22T10:16:06;580.80;;;557.70;;
17197;SDS011;8715;51.010;6.812;2022-10-22T10:21:35;569.00;;;545.92;;
17197;SDS011;8715;51.010;6.812;2022-10-22T10:26:57;581.17;;;557.72;;
17197;SDS011;8715;51.010;6.812;2022-10-22T10:29:33;579.45;;;556.60;;
17197;SDS011;8715;51.010;6.812;2022-10-22T10:35:00;578.80;;;556.03;;
17197;SDS011;8715;51.010;6.812;2022-10-22T10:37:42;572.53;;;549.15;;
17197;SDS011;8715;51.010;6.812;2022-10-22T10:40:31;577.40;;;554.58;;
17197;SDS011;8715;51.010;6.812;2022-10-22T10:43:14;618.92;;;593.83;;
17197;SDS011;8715;51.010;6.812;2022-10-22T10:45:52;565.45;;;542.97;;
17197;SDS011;8715;51.010;6.812;2022-10-22T10:51:06;576.33;;;553.30;;
17197;SDS011;8715;51.010;6.812;2022-10-22T10:58:58;576.90;;;553.55;;
17197;SDS011;8715;51.010;6.812;2022-10-22T11:06:49;569.30;;;545.97;;
17197;SDS011;8715;51.010;6.812;2022-10-22T11:09:29;564.40;;;541.67;;
17197;SDS011;8715;51.010;6.812;2022-10-22T11:12:15;573.08;;;549.75;;
17197;SDS011;8715;51.010;6.812;2022-10-22T11:14:59;573.33;;;550.00;;
17197;SDS011;8715;51.010;6.812;2022-10-22T11:17:36;570.20;;;547.13;;
17197;SDS011;8715;51.010;6.812;2022-10-22T11:22:42;560.95;;;538.63;;
17197;SDS011;8715;51.010;6.812;2022-10-22T11:25:20;568.75;;;546.22;;
17197;SDS011;8715;51.010;6.812;2022-10-22T11:27:50;572.85;;;549.92;;
17197;SDS011;8715;51.010;6.812;2022-10-22T11:30:19;575.53;;;552.75;;
17197;SDS011;8715;51.010;6.812;2022-10-22T11:32:50;578.47;;;554.97;;
17197;SDS011;8715;51.010;6.812;2022-10-22T11:35:39;592.67;;;569.00;;
17197;SDS011;8715;51.010;6.812;2022-10-22T11:38:06;578.50;;;554.63;;
17197;SDS011;8715;51.010;6.812;2022-10-22T11:40:42;580.25;;;556.58;;
17197;SDS011;8715;51.010;6.812;2022-10-22T11:43:11;587.47;;;563.78;;
17197;SDS011;8715;51.010;6.812;2022-10-22T11:48:40;597.03;;;572.30;;
17197;SDS011;8715;51.010;6.812;2022-10-22T11:51:27;587.47;;;563.40;;
17197;SDS011;8715;51.010;6.812;2022-10-22T11:53:56;579.78;;;556.65;;
17197;SDS011;8715;51.010;6.812;2022-10-22T11:56:23;583.63;;;560.17;;
17197;SDS011;8715;51.010;6.812;2022-10-22T11:58:52;581.30;;;557.83;;
17197;SDS011;8715;51.010;6.812;2022-10-22T12:06:59;570.83;;;547.95;;
17197;SDS011;8715;51.010;6.812;2022-10-22T12:09:25;579.63;;;556.67;;
17197;SDS011;8715;51.010;6.812;2022-10-22T12:11:54;583.63;;;560.22;;
17197;SDS011;8715;51.010;6.812;2022-10-22T12:21:51;597.55;;;572.90;;
17197;SDS011;8715;51.010;6.812;2022-10-22T12:24:19;596.75;;;572.88;;
17197;SDS011;8715;51.010;6.812;2022-10-22T12:26:47;602.80;;;578.38;;
17197;SDS011;8715;51.010;6.812;2022-10-22T12:31:42;598.72;;;574.17;;
17197;SDS011;8715;51.010;6.812;2022-10-22T12:34:14;604.67;;;580.30;;
17197;SDS011;8715;51.010;6.812;2022-10-22T12:36:40;598.78;;;574.33;;
17197;SDS011;8715;51.010;6.812;2022-10-22T12:39:16;619.13;;;593.53;;
17197;SDS011;8715;51.010;6.812;2022-10-22T12:41:44;614.10;;;589.00;;
17197;SDS011;8715;51.010;6.812;2022-10-22T12:44:12;610.30;;;585.42;;
17197;SDS011;8715;51.010;6.812;2022-10-22T12:46:39;610.65;;;585.13;;
17197;SDS011;8715;51.010;6.812;2022-10-22T12:49:05;620.95;;;595.53;;
17197;SDS011;8715;51.010;6.812;2022-10-22T12:51:35;616.17;;;590.13;;
17197;SDS011;8715;51.010;6.812;2022-10-22T12:54:14;617.05;;;591.63;;
17197;SDS011;8715;51.010;6.812;2022-10-22T12:56:46;613.08;;;587.45;;
17197;SDS011;8715;51.010;6.812;2022-10-22T12:59:21;616.50;;;591.33;;
17197;SDS011;8715;51.010;6.812;2022-10-22T13:01:49;599.22;;;575.00;;
17197;SDS011;8715;51.010;6.812;2022-10-22T13:06:45;605.23;;;580.57;;
17197;SDS011;8715;51.010;6.812;2022-10-22T13:09:20;604.95;;;580.13;;
17197;SDS011;8715;51.010;6.812;2022-10-22T13:11:52;618.80;;;591.42;;
17197;SDS011;8715;51.010;6.812;2022-10-22T13:19:44;608.75;;;584.15;;
17197;SDS011;8715;51.010;6.812;2022-10-22T13:24:55;588.83;;;564.28;;
17197;SDS011;8715;51.010;6.812;2022-10-22T13:27:23;612.53;;;587.80;;
17197;SDS011;8715;51.010;6.812;2022-10-22T13:29:48;603.75;;;579.42;;
17197;SDS011;8715;51.010;6.812;2022-10-22T13:32:31;601.05;;;576.35;;
17197;SDS011;8715;51.010;6.812;2022-10-22T13:34:58;601.05;;;576.95;;
17197;SDS011;8715;51.010;6.812;2022-10-22T13:37:24;643.88;;;617.65;;
17197;SDS011;8715;51.010;6.812;2022-10-22T13:39:50;596.38;;;572.55;;
17197;SDS011;8715;51.010;6.812;2022-10-22T13:42:15;602.10;;;577.97;;
17197;SDS011;8715;51.010;6.812;2022-10-22T13:44:40;602.50;;;577.38;;
17197;SDS011;8715;51.010;6.812;2022-10-22T13:47:18;614.67;;;589.38;;
17197;SDS011;8715;51.010;6.812;2022-10-22T13:49:55;605.10;;;580.38;;
17197;SDS011;8715;51.010;6.812;2022-10-22T13:52:30;601.30;;;576.90;;
17197;SDS011;8715;51.010;6.812;2022-10-22T13:55:16;598.53;;;574.55;;
17197;SDS011;8715;51.010;6.812;2022-10-22T13:57:43;607.65;;;582.45;;
17197;SDS011;8715;51.010;6.812;2022-10-22T14:00:13;610.05;;;585.30;;
17197;SDS011;8715;51.010;6.812;2022-10-22T14:02:48;614.53;;;589.25;;
17197;SDS011;8715;51.010;6.812;2022-10-22T14:05:17;623.88;;;598.40;;
17197;SDS011;8715;51.010;6.812;2022-10-22T14:07:43;608.78;;;583.80;;
17197;SDS011;8715;51.010;6.812;2022-10-22T14:10:19;617.45;;;591.90;;
17197;SDS011;8715;51.010;6.812;2022-10-22T14:12:46;615.80;;;589.88;;
17197;SDS011;8715;51.010;6.812;2022-10-22T14:15:14;617.42;;;591.95;;
17197;SDS011;8715;51.010;6.812;2022-10-22T14:17:42;623.05;;;597.60;;
17197;SDS011;8715;51.010;6.812;2022-10-22T14:20:19;609.92;;;584.90;;
17197;SDS011;8715;51.010;6.812;2022-10-22T14:22:46;608.45;;;582.83;;
17197;SDS011;8715;51.010;6.812;2022-10-22T14:25:13;610.10;;;585.13;;
17197;SDS011;8715;51.010;6.812;2022-10-22T14:27:43;610.63;;;585.88;;
17197;SDS011;8715;51.010;6.812;2022-10-22T14:30:08;605.47;;;581.08;;
17197;SDS011;8715;51.010;6.812;2022-10-22T14:32:38;612.60;;;586.83;;
17197;SDS011;8715;51.010;6.812;2022-10-22T14:35:03;602.23;;;577.93;;
17197;SDS011;8715;51.010;6.812;2022-10-22T14:37:29;663.15;;;635.30;;
17197;SDS011;8715;51.010;6.812;2022-10-22T14:39:54;614.38;;;589.47;;
17197;SDS011;8715;51.010;6.812;2022-10-22T14:42:27;600.30;;;575.97;;
17197;SDS011;8715;51.010;6.812;2022-10-22T14:44:53;612.17;;;586.72;;
17197;SDS011;8715;51.010;6.812;2022-10-22T14:47:18;611.03;;;586.28;;
17197;SDS011;8715;51.010;6.812;2022-10-22T14:49:43;614.50;;;589.53;;
17197;SDS011;8715;51.010;6.812;2022-10-22T14:52:09;605.97;;;581.40;;
17197;SDS011;8715;51.010;6.812;2022-10-22T14:54:34;604.03;;;579.70;;
17197;SDS011;8715;51.010;6.812;2022-10-22T14:57:03;616.15;;;591.15;;
17197;SDS011;8715;51.010;6.812;2022-10-22T14:59:28;606.72;;;582.55;;
17197;SDS011;8715;51.010;6.812;2022-10-22T15:01:55;593.80;;;570.33;;
17197;SDS011;8715;51.010;6.812;2022-10-22T15:04:21;598.65;;;574.30;;
17197;SDS011;8715;51.010;6.812;2022-10-22T15:06:46;600.88;;;576.50;;
17197;SDS011;8715;51.010;6.812;2022-10-22T15:09:12;611.15;;;585.95;;
17197;SDS011;8715;51.010;6.812;2022-10-22T15:11:37;604.25;;;579.75;;
17197;SDS011;8715;51.010;6.812;2022-10-22T15:14:02;605.60;;;581.28;;
17197;SDS011;8715;51.010;6.812;2022-10-22T15:16:29;602.80;;;577.70;;
17197;SDS011;8715;51.010;6.812;2022-10-22T15:18:54;597.25;;;573.25;;
17197;SDS011;8715;51.010;6.812;2022-10-22T15:21:21;599.85;;;575.83;;
17197;SDS011;8715;51.010;6.812;2022-10-22T15:23:47;602.28;;;577.90;;
17197;SDS011;8715;51.010;6.812;2022-10-22T15:26:13;613.88;;;587.40;;
17197;SDS011;8715;51.010;6.812;2022-10-22T15:28:38;602.10;;;577.53;;
17197;SDS011;8715;51.010;6.812;2022-10-22T15:31:05;602.67;;;578.17;;
17197;SDS011;8715;51.010;6.812;2022-10-22T15:33:31;602.28;;;578.20;;
17197;SDS011;8715;51.010;6.812;2022-10-22T15:35:56;602.30;;;578.20;;
17197;SDS011;8715;51.010;6.812;2022-10-22T15:38:27;585.40;;;561.55;;
17197;SDS011;8715;51.010;6.812;2022-10-22T15:41:02;594.15;;;570.47;;
17197;SDS011;8715;51.010;6.812;2022-10-22T15:43:29;592.13;;;568.25;;
17197;SDS011;8715;51.010;6.812;2022-10-22T15:46:07;593.47;;;569.23;;
17197;SDS011;8715;51.010;6.812;2022-10-22T15:48:40;595.53;;;571.45;;